This is the latest recevied weather packets stored in our database for station/object KD8NVS-13. If no packets are shown the sender has not sent any weather packets the latest 10 day(s).
| Time | Temp. | Humidity | Pressure | Rain* | Wind** | Luminosity | Snow |
|---|---|---|---|---|---|---|---|
| 1777597933 | 8.89° C | 75% | 1004.9 hPa | 0 mm | - | 0 W/m² | - |
| 1777597633 | 8.89° C | 71% | 1005.2 hPa | 0 mm | - | 0 W/m² | - |
| 1777597328 | 9.44° C | 68% | 1005.2 hPa | 0 mm | - | 0 W/m² | - |
| 1777597023 | 10.56° C | 59% | 1005.2 hPa | 0 mm | - | 0 W/m² | - |
| 1777596721 | 10.56° C | 58% | 1005.2 hPa | 0 mm | - | 0 W/m² | - |
| 1777596417 | 11.11° C | 55% | 1004.9 hPa | 0 mm | - | 0 W/m² | - |
| 1777596114 | 11.67° C | 54% | 1004.5 hPa | 0 mm | - | 0 W/m² | - |
| 1777595810 | 11.67° C | 54% | 1005.2 hPa | 0 mm | - | 1 W/m² | - |
| 1777595506 | 11.67° C | 53% | 1004.9 hPa | 0 mm | - | 2 W/m² | - |
| 1777595202 | 12.22° C | 51% | 1004.9 hPa | 0 mm | - | 3 W/m² | - |
| 1777594898 | 12.22° C | 50% | 1004.9 hPa | 0 mm | - | 4 W/m² | - |
| 1777594594 | 12.22° C | 49% | 1004.9 hPa | 0 mm | - | 5 W/m² | - |
| 1777594291 | 12.78° C | 49% | 1004.9 hPa | 0 mm | - | 6 W/m² | - |
| 1777593987 | 12.78° C | 47% | 1004.5 hPa | 0 mm | - | 10 W/m² | - |
| 1777593684 | 12.78° C | 45% | 1004.9 hPa | 0 mm | - | 15 W/m² | - |
| 1777593380 | 12.78° C | 46% | 1005.2 hPa | 0 mm | - | 22 W/m² | - |
| 1777593079 | 12.78° C | 46% | 1004.9 hPa | 0 mm | - | 21 W/m² | - |
| 1777592778 | 13.33° C | 45% | 1004.5 hPa | 0 mm | - | 32 W/m² | - |
| 1777592474 | 12.78° C | 45% | 1004.5 hPa | 0 mm | - | 39 W/m² | - |
| 1777592169 | 13.33° C | 45% | 1004.9 hPa | 0 mm | - | 35 W/m² | - |
| 1777591867 | 13.33° C | 44% | 1004.9 hPa | 0 mm | - | 44 W/m² | - |
| 1777591563 | 13.33° C | 44% | 1004.9 hPa | 0 mm | - | 60 W/m² | - |
| 1777591259 | 13.33° C | 44% | 1005.2 hPa | 0 mm | - | 59 W/m² | - |
| 1777590954 | 13.89° C | 43% | 1004.9 hPa | 0 mm | - | 76 W/m² | - |
| 1777590650 | 13.89° C | 42% | 1004.9 hPa | 0 mm | - | 88 W/m² | - |
* Rain latest hour (hover to see other rain measurements)
** Current wind speed in m/s (hover to see current wind gust speed)